METAR Data
IDs: Format: Raw Decoded Include TAF

Data at: 1218 UTC 16 Oct 2018

PAMD 161155Z AUTO 19018G22KT 8SM BKN011 BKN043 OVC060 10/09 A2943 RMK AO2
PAMD 161151Z AUTO 20017G23KT 9SM SCT011 BKN043 OVC060 10/09 A2943 RMK AO2 PK WND 20028/1139 WSHFT 1038 RAE1057B16E48 SLP955 P0000 60036 70096 T01000089 10122 20100 53029
PAMD 161130Z AUTO 20017G26KT 9SM -RA BKN011 BKN055 OVC070 10/09 A2940 RMK AO2 PK WND 20027/1118 WSHFT 1038 RAE1057B16 CIG 008V015 P0000
PAMD 161110Z AUTO 21016G23KT 9SM BKN009 BKN044 OVC050 10/09 A2936 RMK AO2 WSHFT 1038 RAE1057 CIG 005V012 P0000
PAMD 161108Z AUTO 20017G23KT 9SM SCT007 BKN010 OVC050 10/09 A2936 RMK AO2 WSHFT 1038 RAE1057 PRESRR P0000
PAMD 161056Z AUTO 22015G25KT 10SM -RA SCT004 OVC009 10/10 A2933 RMK AO2 WSHFT 1038 CIG 007V011 P0000
PAMD 161053Z AUTO 23016G27KT 7SM -RA BKN004 OVC009 11/10 A2933 RMK AO2 WSHFT 1038 CIG 003V008 PRESRR P0000
PAMD 161051Z AUTO 22018G28KT 6SM -RA BR BKN004 OVC009 11/10 A2933 RMK AO2 PK WND 12040/0953 WSHFT 1033 CIG 003V007 PRESRR SLP924 P0003 T01060100
PAMD 161048Z AUTO 23019G29KT 4SM -RA BR OVC004 11/11 A2932 RMK AO2 PK WND 12040/0953 WSHFT 1033 CIG 003V007 PRESRR P0003
PAMD 161029Z AUTO 12029G39KT 3SM -RA BR OVC002 12/12 A2927 RMK AO2 PK WND 12040/0953 P0002
PAMD 161022Z AUTO 12033G38KT 2SM -RA BR OVC002 12/12 A2927 RMK AO2 PK WND 12040/0953 P0002
PAMD 161017Z AUTO 12029G37KT 1 3/4SM -RA BR OVC002 12/12 A2928 RMK AO2 PK WND 12040/0953 P0002
PAMD 161014Z AUTO 12030G39KT 1 3/4SM -RA BR OVC004 12/12 A2928 RMK AO2 PK WND 12040/0953 P0002
PAMD 161001Z AUTO 11032G40KT 2 1/2SM -RA BR OVC004 12/11 A2927 RMK AO2 PK WND 12040/0953 P0000
PAMD 160951Z AUTO 11032G42KT 3SM -RA BR OVC004 12/11 A2928 RMK AO2 PK WND 11043/0920 SLP905 P0013 T01170111
PAMD 160937Z AUTO 11035G40KT 2SM -RA BR OVC004 12/11 A2929 RMK AO2 PK WND 11043/0920 P0012
PAMD 160928Z AUTO 11034G43KT 1 3/4SM RA BR OVC004 12/11 A2930 RMK AO2 PK WND 11043/0920 PRESFR P0010
PAMD 160851Z AUTO 11031G40KT 2 1/2SM -RA BR OVC004 12/11 A2934 RMK AO2 PK WND 10040/0850 SLP926 P0008 60020 T01170111 58031
PAMD 160840Z AUTO 11031G39KT 2 1/2SM RA BR OVC004 12/11 A2935 RMK AO2 PK WND 11039/0840 P0006
PAMD 160834Z AUTO 11031G38KT 2 1/2SM RA BR OVC006 12/11 A2936 RMK AO2 PK WND 11038/0834 P0004
PAMD 160817Z AUTO 11031G37KT 3SM -RA BR OVC006 12/11 A2937 RMK AO2 PK WND 11038/0756 P0002
PAMD 160803Z AUTO 11031G38KT 2 1/2SM -RA BR OVC006 12/11 A2938 RMK AO2 PK WND 11038/0756 P0001
PAMD 160751Z AUTO 11032G39KT 4SM -RA BR OVC006 12/11 A2939 RMK AO2 PK WND 12041/0715 SLP942 P0004 T01170111 401220089
PAMD 160704Z AUTO 11032G38KT 4SM -RA BR OVC006 12/11 A2940 RMK AO2 PK WND 12038/0704 P0001
PAMD 160651Z AUTO 12035G41KT 4SM -RA BR OVC004 12/12 A2941 RMK AO2 PK WND 12041/0650 SLP951 P0008 T01170117
PAMD 160551Z AUTO 12032G39KT 4SM -RA BR OVC004 12/12 A2943 RMK AO2 PK WND 12039/0549 SLP957 P0006 60025 T01170117 10122 20117 58008
PAMD 160451Z AUTO 12029G35KT 4SM -RA BR OVC004 12/12 A2945 RMK AO2 PK WND 12037/0441 RAB10 SLP964 P0002 T01220117
PAMD 160351Z AUTO 12029G36KT 4SM BR OVC004 12/12 A2945 RMK AO2 PK WND 12038/0335 RAE30 SLP963 P0001 T01220117
PAMD 160251Z AUTO 12029G36KT 3SM -RA BR OVC004 12/12 A2945 RMK AO2 PK WND 13037/0158 SLP965 P0001 60016 T01220117 55008
PAMD 160247Z AUTO 12030G36KT 3SM -RA BR OVC004 12/12 A2945 RMK AO2 PK WND 13037/0158 P0001
PAMD 160234Z AUTO 13029G34KT 2 1/2SM -RA BR OVC004 12/12 A2946 RMK AO2 PK WND 13037/0158 P0000
PAMD 160151Z AUTO 13031G37KT 3SM -RA BR OVC004 12/12 A2945 RMK AO2 PK WND 12039/0140 SLP963 P0005 T01220122
PAMD 160146Z AUTO 13029G39KT 3SM -RA BR OVC004 12/12 A2945 RMK AO2 PK WND 12039/0140 P0005
PAMD 160131Z AUTO 13033G39KT 2 1/2SM -RA BR OVC004 12/12 A2945 RMK AO2 PK WND 13039/0130 P0005
PAMD 160126Z AUTO 13029G39KT 3SM -RA BR OVC004 12/12 A2945 RMK AO2 PK WND 13039/0117 P0004
PAMD 160114Z AUTO 13032G39KT 2 1/2SM -RA BR OVC004 12/12 A2944 RMK AO2 PK WND 13039/0114 P0004
PAMD 160112Z AUTO 13031G37KT 3SM -RA BR OVC004 12/12 A2944 RMK AO2 PK WND 13038/0102 P0003
PAMD 160106Z AUTO 13030G38KT 2SM -RA BR OVC004 12/12 A2945 RMK AO2 PK WND 13038/0102 P0003
PAMD 160051Z AUTO 13029G39KT 1 1/2SM -RA BR OVC004 12/12 A2946 RMK AO2 PK WND 13039/0046 SLP966 P0010 T01220122
PAMD 160038Z AUTO 13030G39KT 1 3/4SM -RA BR OVC004 12/12 A2946 RMK AO2 PK WND 13039/0033 P0009
PAMD 160020Z AUTO 13028G35KT 2SM -RA BR OVC004 12/12 A2947 RMK AO2 PK WND 14035/0019 P0006
PAMD 160018Z AUTO 13028G35KT 1 3/4SM -RA BR OVC004 12/12 A2947 RMK AO2 PK WND 13035/0011 P0006
PAMD 152351Z AUTO 13029G34KT 1 1/2SM -RA BR OVC002 12/12 A2948 RMK AO2 PK WND 13034/2351 SLP973 P0007 60029 T01220122 10122 20111 58016
PAMD 152316Z AUTO 13026G32KT 1 1/4SM -RA BR OVC002 12/12 A2949 RMK AO2 PK WND 13032/2316 P0003
PAMD 152311Z AUTO 14026G30KT 1SM -RA BR OVC002 12/12 A2949 RMK AO2 PK WND 14031/2300 P0003
PAMD 152309Z AUTO 14026G31KT 1SM -RA BR OVC004 12/12 A2949 RMK AO2 PK WND 14031/2300 P0003
PAMD 152251Z AUTO 14024G29KT 1 3/4SM -RA BR OVC004 12/12 A2950 RMK AO2 PK WND 14029/2251 SLP980 P0002 T01220122
PAMD 152235Z AUTO 14023G29KT 1 3/4SM -RA BR OVC004 12/12 A2950 RMK AO2 PK WND 13029/2230 P0002
PAMD 152224Z AUTO 14024G28KT 2 1/2SM -RA BR OVC004 12/12 A2951 RMK AO2 PK WND 14028/2224 P0001
PAMD 152217Z AUTO 14023G28KT 3SM -RA BR OVC004 12/12 A2950 RMK AO2 PK WND 14028/2217 P0001
PAMD 152201Z AUTO 14022G27KT 2SM -RA BR OVC004 12/12 A2951 RMK AO2 PK WND 14027/2154 P0001
PAMD 152156Z AUTO 14020G27KT 1 1/4SM -RA BR OVC004 12/12 A2951 RMK AO2 PK WND 14027/2154 P0001
PAMD 152154Z AUTO 14022G27KT 1SM RA BR OVC004 12/12 A2951 RMK AO2 PK WND 14027/2154 P0001
PAMD 152151Z AUTO 14022KT 3/4SM RA BR OVC004 12/12 A2951 RMK AO2 PK WND 14026/2142 SLP983 P0004 T01220122
PAMD 152140Z AUTO 14021KT 1/2SM -RA FG OVC004 12/12 A2951 RMK AO2 P0003
PAMD 152136Z AUTO 14021KT 3/4SM -RA BR OVC004 12/12 A2951 RMK AO2 P0003
PAMD 152121Z AUTO 13020G25KT 1SM -RA BR OVC004 12/12 A2951 RMK AO2 P0003
PAMD 152112Z AUTO 13018KT 3/4SM -RA BR OVC004 12/12 A2952 RMK AO2 P0003
PAMD 152104Z AUTO 13018KT 1/2SM -RA FG OVC004 12/12 A2952 RMK AO2 P0002
PAMD 152051Z AUTO 12018KT 1/4SM -RA FG OVC004 12/12 A2952 RMK AO2 SLP989 P0003 60016 T01170117 56030
PAMD 152046Z AUTO 12016KT 1/4SM -RA FG OVC004 12/12 A2953 RMK AO2 P0003
PAMD 152041Z AUTO 12018KT 1/2SM -RA FG OVC004 12/12 A2953 RMK AO2 P0003
PAMD 152034Z AUTO 12018KT 3/4SM -RA BR OVC004 12/12 A2953 RMK AO2 P0002
PAMD 152029Z AUTO 12018KT 1/2SM -RA FG OVC004 12/12 A2954 RMK AO2 P0002
PAMD 151951Z AUTO 11017KT 1/4SM -RA FG OVC004 12/12 A2955 RMK AO2 SLP998 P0007 T01170117
PAMD 151939Z AUTO 10018KT 1/2SM -RA FG OVC004 12/12 A2955 RMK AO2 P0006
PAMD 151919Z AUTO 09016G23KT 1/4SM RA FG OVC004 11/11 A2957 RMK AO2 P0004
PAMD 151853Z AUTO 09018KT 1/2SM -RA FG OVC004 11/11 A2958 RMK AO2 P0000
PAMD 151851Z AUTO 09018KT 3/4SM -RA BR OVC004 11/11 A2958 RMK AO2 SLP008 P0006 T01110111
PAMD 151846Z AUTO 09018KT 3/4SM -RA BR OVC004 11/11 A2958 RMK AO2 P0005
PAMD 151840Z AUTO 09017KT 1SM -RA BR OVC004 11/11 A2959 RMK AO2 CIG 003V007 P0004
PAMD 151833Z AUTO 09018G23KT 3/4SM -RA BR OVC004 11/11 A2959 RMK AO2 P0004
PAMD 151813Z AUTO 10017KT 1/2SM -RA FG OVC004 11/11 A2961 RMK AO2 P0002
PAMD 151751Z AUTO 10017KT 1/4SM -RA FG OVC004 11/11 A2961 RMK AO2 SLP019 P0006 60006 T01110111 10111 20100 58013
PAMD 151748Z AUTO 10017KT 1/4SM -RA FG OVC004 11/11 A2962 RMK AO2 P0005
PAMD 151743Z AUTO 10016KT 1/4SM -RA FG OVC002 11/11 A2962 RMK AO2 P0004
PAMD 151730Z AUTO 10015KT 1/2SM -RA FG OVC002 11/11 A2963 RMK AO2 P0003
PAMD 151651Z AUTO 10014KT 1/4SM -RA FG OVC002 11/11 A2964 RMK AO2 RAB42 SLP028 P0000 T01110106
PAMD 151622Z AUTO 10015KT 1/4SM FG OVC002 11/11 A2965 RMK AO2
PAMD 151551Z AUTO 10014KT 1/2SM FG OVC002 11/11 A2966 RMK AO2 SLP034 T01110106
PAMD 151451Z AUTO 11014KT 1/2SM FG OVC002 11/11 A2965 RMK AO2 SLP033 T01060106 58008
PAMD 151351Z AUTO 10012KT 1/2SM FG OVC002 11/11 A2966 RMK AO2 SLP036 T01060106
PAMD 151344Z AUTO 10014KT 1/2SM FG OVC002 11/11 A2967 RMK AO2
PAMD 151340Z AUTO 10013KT 3/4SM BR OVC002 11/11 A2967 RMK AO2
PAMD 151334Z AUTO 10013KT 1 1/4SM BR OVC002 11/10 A2967 RMK AO2 CIG 002V006
PAMD 151331Z AUTO 10012KT 3/4SM BR OVC002 11/10 A2967 RMK AO2
PAMD 151324Z AUTO 09014KT 1/2SM FG OVC002 11/10 A2966 RMK AO2
PAMD 151321Z AUTO 09013KT 3/4SM BR OVC002 11/10 A2967 RMK AO2
PAMD 151319Z AUTO 09015KT 1SM BR OVC002 11/10 A2967 RMK AO2
PAMD 151308Z AUTO 09013KT 1 1/4SM BR OVC002 10/10 A2967 RMK AO2
PAMD 151306Z AUTO 09013KT 1SM BR OVC002 10/10 A2967 RMK AO2
PAMD 151251Z AUTO 09012KT 3/4SM BR OVC004 10/10 A2967 RMK AO2 SLP039 T01000100
PAMD 151246Z AUTO 09012KT 3/4SM BR OVC004 10/10 A2967 RMK AO2
PAMD 151243Z AUTO 09013KT 1SM BR OVC004 10/10 A2967 RMK AO2
PAMD 151239Z AUTO 09012KT 1 1/2SM BR OVC004 10/10 A2968 RMK AO2 VIS 3/4V4
PAMD 151234Z AUTO 10012KT 2SM BR OVC004 10/10 A2969 RMK AO2 VIS 1 1/4V4
PAMD 151232Z AUTO 09012KT 1 3/4SM BR OVC004 10/10 A2969 RMK AO2
PAMD 151230Z AUTO 10013KT 2SM BR OVC004 10/10 A2969 RMK AO2 VIS 1 1/4V4
PAMD 151226Z AUTO 10013KT 3SM BR OVC004 10/09 A2969 RMK AO2
PAMD 151222Z AUTO 10012KT 1 1/4SM BR OVC004 10/09 A2969 RMK AO2
PAMD 151220Z AUTO 10012KT 1SM BR OVC004 10/09 A2969 RMK AO2
PAMD 151213Z AUTO 10012KT 1/2SM FG OVC004 10/10 A2968 RMK AO2
PAMD 151206Z AUTO 10012KT 3/4SM BR OVC004 10/09 A2969 RMK AO2
PAMD 151204Z AUTO 09013KT 1SM BR OVC004 10/09 A2969 RMK AO2
PAMD 151151Z AUTO 08016KT 1 1/4SM BR OVC004 10/09 A2968 RMK AO2 VIS 3/4V3 SLP041 T01000094 10100 20089 58007
PAMD 151146Z AUTO 08015KT 1SM BR OVC004 10/09 A2968 RMK AO2
PAMD 151131Z AUTO 08015KT 1 1/2SM BR OVC004 10/09 A2969 RMK AO2
PAMD 151126Z AUTO 08013KT 2 1/2SM BR OVC004 09/09 A2969 RMK AO2
PAMD 151117Z AUTO 08014KT 1 3/4SM BR OVC004 10/09 A2970 RMK AO2
PAMD 151115Z AUTO 08015KT 2SM BR OVC004 10/09 A2969 RMK AO2
PAMD 151051Z AUTO 09014KT 7SM OVC004 09/09 A2969 RMK AO2 SLP046 T00940094
PAMD 151025Z AUTO 08015KT 4SM BR BKN004 OVC012 09/09 A2969 RMK AO2 CIG 002V007
PAMD 151021Z AUTO 08014KT 5SM BR SCT004 BKN009 OVC014 09/09 A2969 RMK AO2 CIG 008V012
PAMD 151018Z AUTO 08015KT 6SM BR SCT007 OVC013 10/08 A2969 RMK AO2
PAMD 150951Z AUTO 08015KT 10SM OVC014 10/08 A2969 RMK AO2 SLP045 T01000083
PAMD 150932Z AUTO 08012KT 10SM SCT004 OVC012 09/09 A2969 RMK AO2
PAMD 150907Z AUTO 07014KT 6SM BR BKN004 BKN008 OVC012 09/09 A2969 RMK AO2 CIG 002V007
PAMD 150900Z AUTO 07012KT 10SM BKN008 OVC012 09/08 A2970 RMK AO2
PAMD 150854Z AUTO 07011KT 10SM OVC010 09/08 A2970 RMK AO2 CIG 007V013
PAMD 150851Z AUTO 08011KT 9SM BKN008 OVC012 09/08 A2970 RMK AO2 SLP048 T00940083 55002
PAMD 150838Z AUTO 08013KT 10SM BKN007 BKN012 09/08 A2970 RMK AO2 CIG 007V011
PAMD 150833Z AUTO 08014KT 10SM SCT007 BKN012 09/08 A2970 RMK AO2
PAMD 150824Z AUTO 08012KT 10SM FEW007 09/08 A2970 RMK AO2
PAMD 150751Z AUTO 05011KT 10SM CLR 09/07 A2968 RMK AO2 SLP042 T00890067 401060061
PAMD 150651Z AUTO 05011KT 10SM FEW046 09/07 A2970 RMK AO2 SLP049 T00890067
PAMD 150551Z AUTO 05008KT 10SM OVC048 09/07 A2970 RMK AO2 SLP049 T00890072 10100 20078 56003
PAMD 150451Z AUTO 04010KT 10SM BKN100 08/07 A2970 RMK AO2 SLP050 T00830072
PAMD 150351Z AUTO 04009KT 10SM CLR 08/07 A2970 RMK AO2 SLP048 T00830067
PAMD 150251Z AUTO 05008KT 10SM BKN110 08/07 A2971 RMK AO2 SLP052 T00830067 56022
PAMD 150151Z AUTO 05009KT 10SM CLR 08/06 A2973 RMK AO2 SLP057 T00830061
PAMD 150051Z AUTO 06009KT 10SM CLR 09/06 A2973 RMK AO2 SLP060 T00890061